createdAt,value
2018-09-19T00:02:20.796Z,76.90
2018-09-19T00:04:49.215Z,76.70
2018-09-19T00:07:17.628Z,75.90
2018-09-19T00:09:46.002Z,77.10
2018-09-19T00:12:14.424Z,77.40
2018-09-19T00:14:42.803Z,76.60
2018-09-19T00:17:11.191Z,76.30
2018-09-19T00:19:39.541Z,77.60
2018-09-19T00:22:08.137Z,78.10
2018-09-19T00:24:36.553Z,78.00
2018-09-19T00:27:05.313Z,78.30
2018-09-19T00:29:33.654Z,78.60
2018-09-19T00:32:02.128Z,78.50
2018-09-19T00:34:30.517Z,77.30
2018-09-19T00:36:58.930Z,78.40
2018-09-19T00:39:27.525Z,77.60
2018-09-19T00:41:56.345Z,78.80
2018-09-19T00:44:25.327Z,77.60
2018-09-19T00:46:54.050Z,78.50
2018-09-19T00:49:22.732Z,79.50
2018-09-19T00:51:51.146Z,78.30
2018-09-19T00:54:19.564Z,78.60
2018-09-19T00:56:48.186Z,78.40
2018-09-19T00:59:16.609Z,79.40
2018-09-19T01:01:45.254Z,78.10
2018-09-19T01:04:13.687Z,77.60
2018-09-19T01:06:42.022Z,76.30
2018-09-19T01:09:10.500Z,76.70
2018-09-19T01:11:39.184Z,77.20
2018-09-19T01:14:07.945Z,77.20
2018-09-19T01:16:36.371Z,76.00
2018-09-19T01:19:04.969Z,77.00
2018-09-19T01:21:33.374Z,77.10
2018-09-19T01:24:01.793Z,76.00
2018-09-19T01:26:30.196Z,75.70
2018-09-19T01:28:58.577Z,76.40
2018-09-19T01:31:27.012Z,76.50
2018-09-19T01:33:55.581Z,77.50
2018-09-19T01:36:24.010Z,76.40
2018-09-19T01:38:52.516Z,77.30
2018-09-19T01:41:21.070Z,77.10
2018-09-19T01:43:49.516Z,75.70
2018-09-19T01:46:17.937Z,77.10
2018-09-19T01:48:46.361Z,76.20
2018-09-19T01:51:14.818Z,77.30
2018-09-19T01:53:43.253Z,75.90
2018-09-19T01:56:11.684Z,76.30
2018-09-19T01:58:40.126Z,77.00
2018-09-19T02:01:08.489Z,75.90
2018-09-19T02:03:36.932Z,76.10
2018-09-19T02:06:05.404Z,76.30
2018-09-19T02:08:33.779Z,76.60
2018-09-19T02:11:02.189Z,75.80
2018-09-19T02:13:30.573Z,76.00
2018-09-19T02:15:59.009Z,75.90
2018-09-19T02:18:27.387Z,76.60
2018-09-19T02:20:55.760Z,76.80
2018-09-19T02:23:24.193Z,77.00
2018-09-19T02:25:52.602Z,76.60
2018-09-19T02:28:21.126Z,76.50
2018-09-19T02:30:49.700Z,76.70
2018-09-19T02:33:18.287Z,76.40
2018-09-19T02:35:46.757Z,76.00
2018-09-19T02:38:15.161Z,76.70
2018-09-19T02:40:43.566Z,76.30
2018-09-19T02:43:11.977Z,76.00
2018-09-19T02:45:40.415Z,76.80
2018-09-19T02:48:08.820Z,76.30
2018-09-19T02:50:37.201Z,76.60
2018-09-19T02:53:05.618Z,76.20
2018-09-19T02:55:34.001Z,75.70
2018-09-19T02:58:02.433Z,76.10
2018-09-19T03:00:30.824Z,76.80
2018-09-19T03:02:59.289Z,77.00
2018-09-19T03:05:27.713Z,76.90
2018-09-19T03:07:56.126Z,76.40
2018-09-19T03:10:24.516Z,76.70
2018-09-19T03:12:52.941Z,76.30
2018-09-19T03:15:23.016Z,77.00
2018-09-19T03:17:51.632Z,76.00
2018-09-19T03:20:20.285Z,76.10
2018-09-19T03:22:48.657Z,76.30
2018-09-19T03:25:17.110Z,76.30
2018-09-19T03:27:45.550Z,76.30
2018-09-19T03:30:13.962Z,76.60
2018-09-19T03:32:42.374Z,77.30
2018-09-19T03:35:10.955Z,76.90
2018-09-19T03:37:39.538Z,76.90
2018-09-19T03:40:08.251Z,76.90
2018-09-19T03:42:36.673Z,77.10
2018-09-19T03:45:05.450Z,77.50
2018-09-19T03:47:33.849Z,77.00
2018-09-19T03:50:02.766Z,77.00
2018-09-19T03:52:31.151Z,77.60
2018-09-19T03:54:59.530Z,76.80
2018-09-19T03:57:28.132Z,76.50
2018-09-19T03:59:56.565Z,76.40
2018-09-19T04:02:24.971Z,76.40
2018-09-19T04:04:53.370Z,76.60
2018-09-19T04:07:21.790Z,77.10
2018-09-19T04:09:50.408Z,76.40
2018-09-19T04:12:19.158Z,76.50
2018-09-19T04:14:47.558Z,76.40
2018-09-19T04:17:15.947Z,76.60
2018-09-19T04:19:44.327Z,76.80
2018-09-19T04:22:12.924Z,77.50
2018-09-19T04:24:41.299Z,76.60
2018-09-19T04:27:09.718Z,76.30
2018-09-19T04:29:38.109Z,76.10
2018-09-19T04:32:06.915Z,77.20
2018-09-19T04:34:35.458Z,77.20
2018-09-19T04:37:03.822Z,76.90
2018-09-19T04:39:32.237Z,76.60
2018-09-19T04:42:00.699Z,76.90
2018-09-19T04:44:29.084Z,76.80
2018-09-19T04:46:57.506Z,76.40
2018-09-19T04:49:25.845Z,76.60
2018-09-19T04:51:54.279Z,76.40
2018-09-19T04:54:22.665Z,76.80
2018-09-19T04:56:51.072Z,77.40
2018-09-19T04:59:19.801Z,77.50
2018-09-19T05:01:48.170Z,76.80
2018-09-19T05:04:16.771Z,77.10
2018-09-19T05:06:45.151Z,77.20
2018-09-19T05:09:13.575Z,76.70
2018-09-19T05:11:42.033Z,78.00
2018-09-19T05:14:10.631Z,76.70
2018-09-19T05:16:39.053Z,77.70
2018-09-19T05:19:07.471Z,77.40
2018-09-19T05:21:35.885Z,77.70
2018-09-19T05:24:04.275Z,77.60
2018-09-19T05:26:32.673Z,77.60
2018-09-19T05:29:01.059Z,77.40
2018-09-19T05:31:29.496Z,77.60
2018-09-19T05:33:58.106Z,77.90
2018-09-19T05:36:26.511Z,78.80
2018-09-19T05:38:54.922Z,78.30
2018-09-19T05:41:23.572Z,78.30
2018-09-19T05:43:51.968Z,78.80
2018-09-19T05:46:20.379Z,78.90
2018-09-19T05:48:48.999Z,78.10
2018-09-19T05:51:17.330Z,77.90
2018-09-19T05:53:45.984Z,77.70
2018-09-19T05:56:14.358Z,78.20
2018-09-19T05:58:42.772Z,77.80
2018-09-19T06:01:11.244Z,78.00
2018-09-19T06:03:39.687Z,77.60
2018-09-19T06:06:08.104Z,77.20
2018-09-19T06:08:36.560Z,77.70
2018-09-19T06:11:05.037Z,77.50
2018-09-19T06:13:33.433Z,77.70
2018-09-19T06:16:01.849Z,78.00
2018-09-19T06:18:30.295Z,78.60
2018-09-19T06:20:58.712Z,78.50
2018-09-19T06:23:27.137Z,78.30
2018-09-19T06:25:55.595Z,78.00
2018-09-19T06:28:23.931Z,77.90
2018-09-19T06:30:52.351Z,77.90
2018-09-19T06:33:20.781Z,77.80
2018-09-19T06:35:49.377Z,78.00
2018-09-19T06:38:17.747Z,77.80
2018-09-19T06:40:46.297Z,77.30
2018-09-19T06:43:14.736Z,77.60
2018-09-19T06:45:43.221Z,77.90
2018-09-19T06:48:11.743Z,77.50
2018-09-19T06:50:40.164Z,77.40
2018-09-19T06:53:08.560Z,77.50
2018-09-19T06:55:36.955Z,78.50
2018-09-19T06:58:05.543Z,78.30
2018-09-19T07:00:33.920Z,78.20
2018-09-19T07:03:02.375Z,78.10
2018-09-19T07:05:30.814Z,78.50
2018-09-19T07:07:59.179Z,77.60
2018-09-19T07:10:27.553Z,79.20
2018-09-19T07:12:56.187Z,79.50
2018-09-19T07:15:24.796Z,79.30
2018-09-19T07:17:53.232Z,78.70
2018-09-19T07:20:21.660Z,78.40
2018-09-19T07:22:50.059Z,78.90
2018-09-19T07:25:18.558Z,79.00
2018-09-19T07:27:47.136Z,80.20
2018-09-19T07:30:15.538Z,79.60
2018-09-19T07:32:43.930Z,79.70
2018-09-19T07:35:12.297Z,79.50
2018-09-19T07:37:40.715Z,80.30
2018-09-19T07:40:09.190Z,79.30
2018-09-19T07:42:37.769Z,79.50
2018-09-19T07:45:06.170Z,79.50
2018-09-19T07:47:34.573Z,79.20
2018-09-19T07:50:03.069Z,79.20
2018-09-19T07:52:31.472Z,78.70
2018-09-19T07:55:00.074Z,77.30
2018-09-19T07:57:28.476Z,77.70
2018-09-19T07:59:56.864Z,78.00
2018-09-19T08:02:25.254Z,78.30
2018-09-19T08:04:54.036Z,77.70
2018-09-19T08:07:22.436Z,77.70
2018-09-19T08:09:50.825Z,77.20
2018-09-19T08:12:19.434Z,77.30
2018-09-19T08:14:47.770Z,76.30
2018-09-19T08:17:16.171Z,77.10
2018-09-19T08:19:44.565Z,77.30
2018-09-19T08:22:13.005Z,77.70
2018-09-19T08:24:41.396Z,78.00
2018-09-19T08:27:09.775Z,78.30
2018-09-19T08:29:38.352Z,77.10
2018-09-19T08:32:07.118Z,76.80
2018-09-19T08:34:35.519Z,76.80
2018-09-19T08:37:03.915Z,77.20
2018-09-19T08:39:32.314Z,77.10
2018-09-19T08:42:00.658Z,76.90
2018-09-19T08:44:29.432Z,76.40
2018-09-19T08:46:57.871Z,76.10
2018-09-19T08:49:26.278Z,76.70
2018-09-19T08:51:54.978Z,76.10
2018-09-19T08:54:23.365Z,76.10
2018-09-19T08:56:51.715Z,75.60
2018-09-19T08:59:20.338Z,75.90
2018-09-19T09:01:48.897Z,75.30
2018-09-19T09:04:17.311Z,75.50
2018-09-19T09:06:45.737Z,75.00
2018-09-19T09:09:14.120Z,74.80
2018-09-19T09:11:42.739Z,74.20
2018-09-19T09:14:11.125Z,74.10
2018-09-19T09:16:39.585Z,74.20
2018-09-19T09:19:08.307Z,74.30
2018-09-19T09:21:36.660Z,74.50
2018-09-19T09:24:05.095Z,74.50
2018-09-19T09:26:33.532Z,73.20
2018-09-19T09:29:01.866Z,72.60
2018-09-19T09:31:30.285Z,72.40
2018-09-19T09:33:58.713Z,72.80
2018-09-19T09:36:27.100Z,72.20
2018-09-19T09:38:55.509Z,72.20
2018-09-19T09:41:23.887Z,72.00
2018-09-19T09:43:52.251Z,71.70
2018-09-19T09:46:20.641Z,71.80
2018-09-19T09:48:49.019Z,72.00
2018-09-19T09:51:17.384Z,72.30
2018-09-19T09:53:45.790Z,72.10
2018-09-19T09:56:14.212Z,71.70
2018-09-19T09:58:42.624Z,72.10
2018-09-19T10:01:11.057Z,70.50
2018-09-19T10:03:39.666Z,70.30
2018-09-19T10:06:08.096Z,70.30
2018-09-19T10:08:36.492Z,70.00
2018-09-19T10:11:05.378Z,70.70
2018-09-19T10:13:33.814Z,71.10
2018-09-19T10:16:02.397Z,70.80
2018-09-19T10:18:30.846Z,69.50
2018-09-19T10:20:59.250Z,69.50
2018-09-19T10:23:27.805Z,69.90
2018-09-19T10:25:56.209Z,70.30
2018-09-19T10:28:24.634Z,70.10
2018-09-19T10:30:53.388Z,70.00
2018-09-19T10:33:21.812Z,69.40
2018-09-19T10:35:50.207Z,69.50
2018-09-19T10:38:18.606Z,69.60
2018-09-19T10:40:47.033Z,69.60
2018-09-19T10:43:15.635Z,69.40
2018-09-19T10:45:44.069Z,68.70
2018-09-19T10:48:12.497Z,68.40
2018-09-19T10:50:40.902Z,68.00
2018-09-19T10:53:09.345Z,67.80
2018-09-19T10:55:37.768Z,69.00
2018-09-19T10:58:06.211Z,69.10
2018-09-19T11:00:34.618Z,69.00
2018-09-19T11:03:02.990Z,68.30
2018-09-19T11:05:31.365Z,67.40
2018-09-19T11:07:59.757Z,68.20
2018-09-19T11:10:28.146Z,67.10
2018-09-19T11:12:56.551Z,67.10
2018-09-19T11:15:24.995Z,66.80
2018-09-19T11:17:53.343Z,65.80
2018-09-19T11:20:21.698Z,65.40
2018-09-19T11:22:50.098Z,65.30
2018-09-19T11:25:18.516Z,65.30
2018-09-19T11:27:46.900Z,65.40
2018-09-19T11:30:15.314Z,64.20
2018-09-19T11:32:43.705Z,65.00
2018-09-19T11:35:12.151Z,65.70
2018-09-19T11:37:40.562Z,65.80
2018-09-19T11:40:09.010Z,64.50
2018-09-19T11:42:37.430Z,66.30
2018-09-19T11:45:05.874Z,66.50
2018-09-19T11:47:34.282Z,65.60
2018-09-19T11:50:02.730Z,65.70
2018-09-19T11:52:31.127Z,65.20
2018-09-19T11:54:59.559Z,65.40
2018-09-19T11:57:28.101Z,65.50
2018-09-19T11:59:56.463Z,65.00
2018-09-19T12:02:24.868Z,64.70
2018-09-19T12:04:53.293Z,62.10
2018-09-19T12:07:21.747Z,64.40
2018-09-19T12:09:50.364Z,63.30
2018-09-19T12:12:18.764Z,63.60
2018-09-19T12:14:47.120Z,63.20
2018-09-19T12:17:15.512Z,62.60
2018-09-19T12:19:43.897Z,62.40
2018-09-19T12:22:12.309Z,63.40
2018-09-19T12:24:40.691Z,63.40
2018-09-19T12:27:09.319Z,63.70
2018-09-19T12:29:37.717Z,62.50
2018-09-19T12:32:06.470Z,62.30
2018-09-19T12:34:34.869Z,61.70
2018-09-19T12:37:03.198Z,62.40
2018-09-19T12:39:31.645Z,61.60
2018-09-19T12:42:00.231Z,62.10
2018-09-19T12:44:28.668Z,62.20
2018-09-19T12:46:57.075Z,62.40
2018-09-19T12:49:25.447Z,61.10
2018-09-19T12:51:53.885Z,61.20
2018-09-19T12:54:22.265Z,61.10
2018-09-19T12:56:50.707Z,60.60
2018-09-19T12:59:19.162Z,59.70
2018-09-19T13:01:47.540Z,59.90
2018-09-19T13:04:15.965Z,59.70
2018-09-19T13:06:44.299Z,60.90
2018-09-19T13:09:12.708Z,60.60
2018-09-19T13:11:41.388Z,59.30
2018-09-19T13:14:09.834Z,59.70
2018-09-19T13:16:38.289Z,60.00
2018-09-19T13:19:06.713Z,59.50
2018-09-19T13:21:35.149Z,58.50
2018-09-19T13:24:03.560Z,58.20
2018-09-19T13:26:31.974Z,58.30
2018-09-19T13:29:00.354Z,58.70
2018-09-19T13:31:28.796Z,58.60
2018-09-19T13:33:57.196Z,57.80
2018-09-19T13:36:25.589Z,58.10
2018-09-19T13:38:53.980Z,58.30
2018-09-19T13:41:22.357Z,55.00
2018-09-19T13:43:50.694Z,54.80
2018-09-19T13:46:19.193Z,55.20
2018-09-19T13:48:51.609Z,55.50
2018-09-19T13:51:22.947Z,55.90
2018-09-19T13:53:51.370Z,54.50
2018-09-19T13:56:20.009Z,54.50
2018-09-19T13:58:48.403Z,55.30
2018-09-19T14:01:17.170Z,56.00
2018-09-19T14:03:45.641Z,56.40
2018-09-19T14:06:14.014Z,56.50
2018-09-19T14:08:42.468Z,55.90
2018-09-19T14:11:10.843Z,56.50
2018-09-19T14:13:39.581Z,56.00
2018-09-19T14:16:08.303Z,56.20
2018-09-19T14:18:36.710Z,56.00
2018-09-19T14:21:05.451Z,56.10
2018-09-19T14:23:33.859Z,55.30
2018-09-19T14:26:02.222Z,55.70
2018-09-19T14:28:30.627Z,55.70
2018-09-19T14:30:59.213Z,56.20
2018-09-19T14:33:27.661Z,55.30
2018-09-19T14:35:56.162Z,55.40
2018-09-19T14:38:24.719Z,55.00
2018-09-19T14:40:53.125Z,55.00
2018-09-19T14:43:21.512Z,55.40
2018-09-19T14:45:49.921Z,54.90
2018-09-19T14:48:18.380Z,55.40
2018-09-19T14:50:46.800Z,55.30
2018-09-19T14:53:15.186Z,55.00
2018-09-19T14:55:43.589Z,55.00
2018-09-19T14:58:12.023Z,55.60
2018-09-19T15:00:40.416Z,55.30
2018-09-19T15:03:08.809Z,54.20
2018-09-19T15:05:37.188Z,54.20
2018-09-19T15:08:05.745Z,54.80
2018-09-19T15:10:34.113Z,53.60
2018-09-19T15:13:02.544Z,52.80
2018-09-19T15:15:31.162Z,51.50
2018-09-19T15:17:59.585Z,50.40
2018-09-19T15:20:28.211Z,52.10
2018-09-19T15:22:56.599Z,52.90
2018-09-19T15:25:25.071Z,54.00
2018-09-19T15:27:53.421Z,52.90
2018-09-19T15:30:21.798Z,51.40
2018-09-19T15:32:50.181Z,53.20
2018-09-19T15:35:18.627Z,53.80
2018-09-19T15:37:46.972Z,52.50
2018-09-19T15:40:15.342Z,54.50
2018-09-19T15:42:43.732Z,53.00
2018-09-19T15:45:12.148Z,51.80
2018-09-19T15:47:40.593Z,52.80
2018-09-19T15:50:09.578Z,54.70
2018-09-19T15:52:37.985Z,52.00
2018-09-19T15:55:06.376Z,53.30
2018-09-19T15:57:34.821Z,54.20
2018-09-19T16:00:03.779Z,54.70
2018-09-19T16:02:32.189Z,55.20
2018-09-19T16:05:00.610Z,54.90
2018-09-19T16:07:29.191Z,55.30
2018-09-19T16:09:57.552Z,55.80
2018-09-19T16:12:25.914Z,55.60
2018-09-19T16:14:54.304Z,56.00
2018-09-19T16:17:22.710Z,55.10
2018-09-19T16:19:51.085Z,56.20
2018-09-19T16:22:19.543Z,56.80
2018-09-19T16:24:47.929Z,56.60
2018-09-19T16:27:16.304Z,55.90
2018-09-19T16:29:44.726Z,57.30
2018-09-19T16:32:13.289Z,57.30
2018-09-19T16:34:41.669Z,57.40
2018-09-19T16:37:10.083Z,57.10
2018-09-19T16:39:38.455Z,57.60
2018-09-19T16:42:06.837Z,59.20
2018-09-19T16:44:35.299Z,59.30
2018-09-19T16:47:03.731Z,60.00
2018-09-19T16:49:32.121Z,60.80
2018-09-19T16:52:00.506Z,61.40
2018-09-19T16:54:28.909Z,62.10
2018-09-19T16:56:57.305Z,62.00
2018-09-19T16:59:26.022Z,61.50
2018-09-19T17:01:54.456Z,62.20
2018-09-19T17:04:22.892Z,62.40
2018-09-19T17:06:51.298Z,63.00
2018-09-19T17:09:19.659Z,62.80
2018-09-19T17:11:48.033Z,63.60
2018-09-19T17:14:16.456Z,63.60
2018-09-19T17:16:44.851Z,63.80
2018-09-19T17:19:13.253Z,64.20
2018-09-19T17:21:41.692Z,64.50
2018-09-19T17:24:10.067Z,64.50
2018-09-19T17:26:38.482Z,64.70
2018-09-19T17:29:06.866Z,65.10
2018-09-19T17:31:35.308Z,64.50
2018-09-19T17:34:03.742Z,64.50
2018-09-19T17:36:32.128Z,65.10
2018-09-19T17:39:00.508Z,65.80
2018-09-19T17:41:29.005Z,65.00
2018-09-19T17:43:57.406Z,65.50
2018-09-19T17:46:25.778Z,65.50
2018-09-19T17:48:54.159Z,65.60
2018-09-19T17:51:22.599Z,65.80
2018-09-19T17:53:50.933Z,65.50
2018-09-19T17:56:19.702Z,65.60
2018-09-19T17:58:48.323Z,65.60
2018-09-19T18:01:16.786Z,66.50
2018-09-19T18:03:45.506Z,66.40
2018-09-19T18:06:14.212Z,66.90
2018-09-19T18:08:42.844Z,67.00
2018-09-19T18:11:11.255Z,67.10
2018-09-19T18:13:39.850Z,67.30
2018-09-19T18:16:08.240Z,67.00
2018-09-19T18:18:36.639Z,67.70
2018-09-19T18:21:05.004Z,67.60
2018-09-19T18:23:33.341Z,68.60
2018-09-19T18:26:01.761Z,67.70
2018-09-19T18:28:30.143Z,67.90
2018-09-19T18:30:58.622Z,67.70
2018-09-19T18:33:27.039Z,68.00
2018-09-19T18:35:55.463Z,69.10
2018-09-19T18:38:24.025Z,68.10
2018-09-19T18:40:52.592Z,68.30
2018-09-19T18:43:21.031Z,67.90
2018-09-19T18:45:49.798Z,68.00
2018-09-19T18:48:18.178Z,67.40
2018-09-19T18:50:46.574Z,68.00
2018-09-19T18:53:14.977Z,67.30
2018-09-19T18:55:43.377Z,67.60
2018-09-19T18:58:11.713Z,67.10
2018-09-19T19:00:40.117Z,67.80
2018-09-19T19:03:08.532Z,67.60
2018-09-19T19:05:36.987Z,66.20
2018-09-19T19:08:05.419Z,65.70
2018-09-19T19:10:33.996Z,65.50
2018-09-19T19:13:02.411Z,64.70
2018-09-19T19:15:30.857Z,64.10
2018-09-19T19:17:59.297Z,62.80
2018-09-19T19:20:27.710Z,62.30
2018-09-19T19:22:56.113Z,61.90
2018-09-19T19:25:24.508Z,62.00
2018-09-19T19:27:52.901Z,61.80
2018-09-19T19:30:21.396Z,61.70
2018-09-19T19:32:49.929Z,61.30
2018-09-19T19:35:18.296Z,61.40
2018-09-19T19:37:46.778Z,61.20
2018-09-19T19:40:15.288Z,61.40
2018-09-19T19:42:43.637Z,61.60
2018-09-19T19:45:12.030Z,62.10
2018-09-19T19:47:40.480Z,61.80
2018-09-19T19:50:08.963Z,62.00
2018-09-19T19:52:37.409Z,62.30
2018-09-19T19:55:06.203Z,62.60
2018-09-19T19:57:34.657Z,62.80
2018-09-19T20:00:03.094Z,62.80
2018-09-19T20:02:31.554Z,63.00
2018-09-19T20:05:01.654Z,62.60
2018-09-19T20:07:30.086Z,62.50
2018-09-19T20:09:58.489Z,62.30
2018-09-19T20:12:26.966Z,62.70
2018-09-19T20:14:55.520Z,62.80
2018-09-19T20:17:23.870Z,62.10
2018-09-19T20:19:52.253Z,62.00
2018-09-19T20:22:20.649Z,62.40
2018-09-19T20:24:49.031Z,62.70
2018-09-19T20:27:17.453Z,63.20
2018-09-19T20:29:45.898Z,63.30
2018-09-19T20:32:14.266Z,62.70
2018-09-19T20:34:42.702Z,62.50
2018-09-19T20:37:11.088Z,62.00
2018-09-19T20:39:39.539Z,62.20
2018-09-19T20:42:07.930Z,62.20
2018-09-19T20:44:36.341Z,62.20
2018-09-19T20:47:04.718Z,62.60
2018-09-19T20:49:33.295Z,63.10
2018-09-19T20:52:01.698Z,62.70
2018-09-19T20:54:30.093Z,62.90
2018-09-19T20:56:58.445Z,62.80
2018-09-19T20:59:26.835Z,63.60
2018-09-19T21:01:55.233Z,62.80
2018-09-19T21:04:23.591Z,63.10
2018-09-19T21:06:52.233Z,63.60
2018-09-19T21:09:20.640Z,63.80
2018-09-19T21:11:49.233Z,63.70
2018-09-19T21:14:17.684Z,63.30
2018-09-19T21:16:46.075Z,63.40
2018-09-19T21:19:14.430Z,63.30
2018-09-19T21:21:42.809Z,63.90
2018-09-19T21:24:11.456Z,63.60
2018-09-19T21:26:39.896Z,63.60
2018-09-19T21:29:08.591Z,63.40
2018-09-19T21:31:37.008Z,63.80
2018-09-19T21:34:05.400Z,63.00
2018-09-19T21:36:33.821Z,62.90
2018-09-19T21:39:02.195Z,62.90
2018-09-19T21:41:30.559Z,63.00
2018-09-19T21:43:58.943Z,63.50
2018-09-19T21:46:27.389Z,64.50
2018-09-19T21:48:55.842Z,64.30
2018-09-19T21:51:24.268Z,63.80
2018-09-19T21:53:52.718Z,63.60
2018-09-19T21:56:21.182Z,63.70
2018-09-19T21:58:49.595Z,63.20
2018-09-19T22:01:23.887Z,64.80
2018-09-19T22:03:52.266Z,64.70
2018-09-19T22:06:20.657Z,63.30
2018-09-19T22:08:49.033Z,64.00
2018-09-19T22:11:17.383Z,64.40
2018-09-19T22:13:46.494Z,65.10
2018-09-19T22:16:14.867Z,66.10
2018-09-19T22:18:43.241Z,66.50
2018-09-19T22:21:11.661Z,66.50
2018-09-19T22:23:40.035Z,67.40
2018-09-19T22:26:08.434Z,67.10
2018-09-19T22:28:36.806Z,67.00
2018-09-19T22:31:05.269Z,67.70
2018-09-19T22:33:33.706Z,67.60
2018-09-19T22:36:02.245Z,67.80
2018-09-19T22:38:30.681Z,68.10
2018-09-19T22:40:59.122Z,67.90
2018-09-19T22:43:27.456Z,67.90
2018-09-19T22:45:55.806Z,68.00
2018-09-19T22:48:24.205Z,68.40
2018-09-19T22:50:52.624Z,68.20
2018-09-19T22:53:21.026Z,68.50
2018-09-19T22:55:49.719Z,68.70
2018-09-19T22:58:18.184Z,68.50
2018-09-19T23:00:46.580Z,68.60
2018-09-19T23:03:14.950Z,68.20
2018-09-19T23:05:43.368Z,69.10
2018-09-19T23:08:11.758Z,69.40
2018-09-19T23:10:40.195Z,69.20
2018-09-19T23:13:08.595Z,69.40
2018-09-19T23:15:37.035Z,69.40
2018-09-19T23:18:06.049Z,69.30
2018-09-19T23:20:34.437Z,69.20
2018-09-19T23:23:02.820Z,69.20
2018-09-19T23:25:31.200Z,69.40
2018-09-19T23:27:59.619Z,69.40
2018-09-19T23:30:28.013Z,69.90
2018-09-19T23:32:56.373Z,70.20
2018-09-19T23:35:24.754Z,69.70
2018-09-19T23:37:53.150Z,70.20
2018-09-19T23:40:21.590Z,70.40
2018-09-19T23:42:50.021Z,70.60
2018-09-19T23:45:18.474Z,70.50
2018-09-19T23:47:46.944Z,70.90
2018-09-19T23:50:15.321Z,70.80
2018-09-19T23:52:43.700Z,71.00
2018-09-19T23:55:12.141Z,71.10
2018-09-19T23:57:40.578Z,70.80
